Time;durP1;ratioP1;P1;durP2;ratioP2;P2;SDS_P1;SDS_P2;PMS_P1;PMS_P2;Temp;Humidity;BMP_temperature;BMP_pressure;BME280_temperature;BME280_humidity;BME280_pressure;Samples;Min_cycle;Max_cycle;Signal;HPM_P1;HPM_P2
2021/12/27 00:02:10;;;;;;;3.20;2.90;;;21.50;36.30;;;;;;5042231;28;43610;-62
2021/12/27 00:04:37;;;;;;;3.45;3.15;;;21.50;36.30;;;;;;5042995;28;43867;-62
2021/12/27 00:07:05;;;;;;;3.00;2.80;;;21.50;36.30;;;;;;5042082;28;43454;-61
2021/12/27 00:09:32;;;;;;;3.10;2.80;;;21.40;36.30;;;;;;5042821;28;43498;-61
2021/12/27 00:12:00;;;;;;;3.10;2.83;;;21.50;36.40;;;;;;5042274;28;43476;-61
2021/12/27 00:14:27;;;;;;;3.10;2.80;;;21.40;36.30;;;;;;5042988;28;44023;-61
2021/12/27 00:16:55;;;;;;;3.38;3.10;;;21.40;36.40;;;;;;5042249;28;43514;-61
2021/12/27 00:19:22;;;;;;;3.55;3.25;;;21.40;36.30;;;;;;5042983;28;43454;-61
2021/12/27 00:21:50;;;;;;;3.25;2.95;;;21.40;36.40;;;;;;5042969;28;43582;-61
2021/12/27 00:24:17;;;;;;;3.08;2.83;;;21.40;36.40;;;;;;5042663;28;44955;-60
2021/12/27 00:26:45;;;;;;;3.17;2.90;;;21.40;36.40;;;;;;5042202;28;43438;-61
2021/12/27 00:29:15;;;;;;;3.13;2.90;;;21.30;36.40;;;;;;5042251;28;43457;-61
2021/12/27 00:31:44;;;;;;;3.53;3.22;;;21.30;36.40;;;;;;5042352;28;43633;-61
2021/12/27 00:34:11;;;;;;;3.00;2.80;;;21.30;36.40;;;;;;5041952;28;43813;-61
2021/12/27 00:36:39;;;;;;;3.60;3.30;;;21.30;36.50;;;;;;5042256;28;44022;-61
2021/12/27 00:39:07;;;;;;;3.92;3.30;;;21.30;36.50;;;;;;5039338;28;43457;-61
2021/12/27 00:41:34;;;;;;;3.10;2.80;;;21.20;36.40;;;;;;5042425;28;43526;-61
2021/12/27 00:44:02;;;;;;;3.22;2.97;;;21.20;36.50;;;;;;5042297;28;43815;-61
2021/12/27 00:46:30;;;;;;;3.40;3.10;;;21.20;36.50;;;;;;5043834;28;43741;-61
2021/12/27 00:48:57;;;;;;;3.38;3.08;;;21.20;36.50;;;;;;5040737;28;43399;-61
2021/12/27 00:51:27;;;;;;;3.70;3.40;;;21.20;36.60;;;;;;5045614;28;43601;-61
2021/12/27 00:53:54;;;;;;;3.22;2.97;;;21.20;36.60;;;;;;5044377;28;44332;-61
2021/12/27 00:56:22;;;;;;;3.42;3.13;;;21.10;36.50;;;;;;5045296;28;43997;-62
2021/12/27 00:58:49;;;;;;;3.10;2.90;;;21.10;36.50;;;;;;5043838;28;43517;-61
2021/12/27 01:01:17;;;;;;;2.83;2.53;;;21.10;36.50;;;;;;5045720;28;43512;-60
2021/12/27 01:03:44;;;;;;;3.20;3.00;;;21.10;36.60;;;;;;5044173;28;43985;-61
2021/12/27 01:06:12;;;;;;;2.90;2.70;;;21.10;36.60;;;;;;5045165;28;43706;-61
2021/12/27 01:08:40;;;;;;;3.30;3.03;;;21.10;36.50;;;;;;5044301;28;43542;-61
2021/12/27 01:11:24;;;;;;;3.33;3.03;;;21.10;36.60;;;;;;5045521;28;43467;-62
2021/12/27 01:16:48;;;;;;;3.33;3.00;;;21.00;36.60;;;;;;5041523;28;43466;-62
2021/12/27 01:19:15;;;;;;;3.50;3.17;;;21.00;36.60;;;;;;5045045;28;43431;-61
2021/12/27 01:21:44;;;;;;;3.42;3.13;;;21.00;36.60;;;;;;5043582;28;43582;-60
2021/12/27 01:24:11;;;;;;;3.20;2.88;;;21.00;36.60;;;;;;5044447;28;44971;-61
2021/12/27 01:26:39;;;;;;;3.45;3.15;;;21.00;36.60;;;;;;5045115;28;43487;-61
2021/12/27 01:29:08;;;;;;;3.33;3.03;;;21.00;36.60;;;;;;5045318;28;43394;-61
2021/12/27 01:31:35;;;;;;;3.25;2.95;;;20.90;36.50;;;;;;5044859;28;43463;-61
2021/12/27 01:34:03;;;;;;;3.67;3.38;;;20.90;36.50;;;;;;5043739;28;44926;-61
2021/12/27 01:36:33;;;;;;;3.88;3.30;;;20.90;36.40;;;;;;5045145;28;43452;-60
2021/12/27 01:39:04;;;;;;;3.42;3.13;;;20.90;36.50;;;;;;5045018;28;43617;-60
2021/12/27 01:41:32;;;;;;;3.30;3.00;;;20.90;36.60;;;;;;5041839;28;43621;-61
2021/12/27 01:44:00;;;;;;;3.55;3.25;;;20.90;36.60;;;;;;5044887;28;44997;-61
2021/12/27 01:46:29;;;;;;;3.50;3.20;;;20.80;36.60;;;;;;5040407;28;43520;-61
2021/12/27 01:48:59;;;;;;;3.88;3.47;;;20.80;36.70;;;;;;5044880;28;43483;-60
2021/12/27 01:51:29;;;;;;;3.60;3.30;;;20.80;36.70;;;;;;5044720;28;43486;-61
2021/12/27 01:53:59;;;;;;;3.97;3.55;;;20.80;36.70;;;;;;5040200;28;45104;-61
2021/12/27 01:56:27;;;;;;;3.72;3.42;;;20.70;36.70;;;;;;5052488;28;43523;-60
2021/12/27 01:58:56;;;;;;;3.60;3.30;;;20.70;36.70;;;;;;5046353;28;43455;-61
2021/12/27 02:01:25;;;;;;;3.80;3.50;;;20.70;36.70;;;;;;5049584;28;43500;-61
2021/12/27 02:03:54;;;;;;;3.60;3.28;;;20.70;36.70;;;;;;5042480;28;43804;-60
2021/12/27 02:06:22;;;;;;;3.20;2.90;;;20.70;37.30;;;;;;5044274;28;43573;-62
2021/12/27 02:08:49;;;;;;;3.70;3.40;;;20.70;36.70;;;;;;5043746;28;43540;-61
2021/12/27 02:11:19;;;;;;;3.63;3.33;;;20.70;36.80;;;;;;5044195;28;44006;-61
2021/12/27 02:13:48;;;;;;;3.88;3.45;;;20.70;36.70;;;;;;5044310;28;44836;-60
2021/12/27 02:16:21;;;;;;;3.60;3.30;;;20.60;36.80;;;;;;5043007;28;43419;-61
2021/12/27 02:18:49;;;;;;;4.18;3.88;;;20.60;36.80;;;;;;5042030;28;43482;-61
2021/12/27 02:21:17;;;;;;;3.72;3.38;;;20.60;36.80;;;;;;5044085;28;43440;-61
2021/12/27 02:23:45;;;;;;;3.63;3.33;;;20.60;36.80;;;;;;5044300;28;43813;-61
2021/12/27 02:26:12;;;;;;;3.97;3.50;;;20.60;36.80;;;;;;5043889;28;43510;-61
2021/12/27 02:28:40;;;;;;;3.97;3.58;;;20.50;36.90;;;;;;5043985;28;43479;-61
2021/12/27 02:31:09;;;;;;;3.75;3.35;;;20.60;36.90;;;;;;5042989;28;43436;-61
2021/12/27 02:33:39;;;;;;;3.70;3.40;;;20.50;36.90;;;;;;5043606;28;45141;-61
2021/12/27 02:36:08;;;;;;;3.47;3.17;;;20.50;36.90;;;;;;5043893;28;43710;-62
2021/12/27 02:38:39;;;;;;;3.97;3.58;;;20.50;36.90;;;;;;5044141;28;43423;-61
2021/12/27 02:41:09;;;;;;;3.78;3.47;;;20.50;36.90;;;;;;5043831;28;43420;-61
2021/12/27 02:43:39;;;;;;;3.58;3.28;;;20.50;36.90;;;;;;5043758;28;43804;-61
2021/12/27 02:46:09;;;;;;;3.80;3.50;;;20.50;37.00;;;;;;5043559;28;43439;-61
2021/12/27 02:48:40;;;;;;;3.83;3.50;;;20.40;37.00;;;;;;5043666;28;43413;-61
2021/12/27 02:51:08;;;;;;;4.05;3.65;;;20.40;37.00;;;;;;5043675;28;43557;-61
2021/12/27 02:53:36;;;;;;;3.63;3.33;;;20.40;37.00;;;;;;5043767;28;45039;-61
2021/12/27 02:56:06;;;;;;;3.28;3.00;;;20.40;37.10;;;;;;5043430;28;43482;-60
2021/12/27 02:58:34;;;;;;;4.13;3.72;;;20.30;37.00;;;;;;5039896;28;43454;-61
2021/12/27 03:01:07;;;;;;;3.78;3.28;;;20.30;37.10;;;;;;5043756;28;43480;-61
2021/12/27 03:03:35;;;;;;;3.88;3.58;;;20.30;37.10;;;;;;5043570;28;44307;-61
2021/12/27 03:06:05;;;;;;;3.78;3.47;;;20.30;37.20;;;;;;5043310;28;43495;-61
2021/12/27 03:08:33;;;;;;;4.03;3.70;;;20.30;37.10;;;;;;5044524;28;43491;-61
2021/12/27 03:11:02;;;;;;;3.63;3.33;;;20.30;37.20;;;;;;5043365;28;43401;-60
2021/12/27 03:13:33;;;;;;;3.50;3.20;;;20.30;37.10;;;;;;5045414;28;45335;-61
2021/12/27 03:16:13;;;;;;;3.42;3.13;;;20.30;37.10;;;;;;5043391;28;43615;-61
2021/12/27 03:18:44;;;;;;;4.10;3.70;;;20.20;37.10;;;;;;5041261;28;43502;-61
2021/12/27 03:21:12;;;;;;;3.60;3.30;;;20.20;37.10;;;;;;5042896;28;43498;-61
2021/12/27 03:23:41;;;;;;;3.72;3.40;;;20.20;37.10;;;;;;5042966;28;43810;-62
2021/12/27 03:26:09;;;;;;;3.42;3.13;;;20.20;37.10;;;;;;5042991;28;43590;-61
2021/12/27 03:28:38;;;;;;;3.85;3.55;;;20.20;37.20;;;;;;5075735;28;43437;-61
2021/12/27 03:31:08;;;;;;;3.67;3.38;;;20.20;37.20;;;;;;5042959;28;43494;-61
2021/12/27 03:33:36;;;;;;;3.53;3.23;;;20.20;37.20;;;;;;5043141;28;44762;-61
2021/12/27 03:36:06;;;;;;;4.22;3.83;;;20.10;37.20;;;;;;5042661;28;43542;-62
2021/12/27 03:38:42;;;;;;;3.63;3.33;;;20.10;37.20;;;;;;5043204;28;43713;-61
2021/12/27 03:41:14;;;;;;;3.83;3.42;;;20.10;37.20;;;;;;5042496;28;43665;-61
2021/12/27 03:43:42;;;;;;;3.65;3.35;;;20.10;37.20;;;;;;5042542;28;44977;-60
2021/12/27 03:46:10;;;;;;;3.97;3.67;;;20.10;37.30;;;;;;5042609;28;43458;-60
2021/12/27 03:48:38;;;;;;;4.35;3.95;;;20.00;37.20;;;;;;5052288;28;43533;-61
2021/12/27 03:51:06;;;;;;;3.50;3.20;;;20.00;37.30;;;;;;5043862;28;43530;-61
2021/12/27 03:53:35;;;;;;;3.60;3.30;;;20.00;37.20;;;;;;5046951;28;44739;-61
2021/12/27 03:56:03;;;;;;;3.90;3.40;;;20.00;37.30;;;;;;5042405;28;43418;-61
2021/12/27 03:58:35;;;;;;;3.95;3.65;;;20.00;37.30;;;;;;5043170;28;43477;-61
2021/12/27 04:01:14;;;;;;;3.83;3.53;;;20.00;37.30;;;;;;5042969;28;43483;-61
2021/12/27 04:03:55;;;;;;;4.03;3.63;;;20.00;37.40;;;;;;5042471;28;43765;-62
2021/12/27 04:06:25;;;;;;;3.63;3.33;;;19.90;38.00;;;;;;5041341;28;43394;-61
2021/12/27 04:08:53;;;;;;;5.15;3.80;;;19.90;37.40;;;;;;5042238;28;43578;-60
2021/12/27 04:11:21;;;;;;;3.80;3.40;;;19.90;37.40;;;;;;5042354;28;43578;-61
2021/12/27 04:13:48;;;;;;;4.30;3.70;;;19.90;37.50;;;;;;5042651;28;43994;-61
2021/12/27 04:16:16;;;;;;;3.90;3.60;;;19.80;37.40;;;;;;5041863;28;43559;-61
2021/12/27 04:18:43;;;;;;;3.83;3.53;;;19.90;37.50;;;;;;5042788;28;43409;-61
2021/12/27 04:21:11;;;;;;;4.10;3.70;;;19.80;37.50;;;;;;5045985;28;44083;-61
2021/12/27 04:23:38;;;;;;;3.88;3.58;;;19.80;37.40;;;;;;5044969;28;43695;-61
2021/12/27 04:26:06;;;;;;;4.13;3.80;;;19.80;37.40;;;;;;5045816;28;43646;-61
2021/12/27 04:28:34;;;;;;;3.97;3.58;;;19.80;37.50;;;;;;5045783;28;43450;-61
2021/12/27 04:31:01;;;;;;;4.18;3.72;;;19.80;37.50;;;;;;5045631;28;43517;-61
2021/12/27 04:33:29;;;;;;;4.30;3.90;;;19.70;37.40;;;;;;5043667;28;44898;-61
2021/12/27 04:35:57;;;;;;;4.18;3.78;;;19.70;37.50;;;;;;5045463;28;43988;-61
2021/12/27 04:38:24;;;;;;;4.03;3.63;;;19.70;37.50;;;;;;5045704;28;43516;-60
2021/12/27 04:40:53;;;;;;;3.80;3.50;;;19.70;37.50;;;;;;5045272;28;43469;-61
2021/12/27 04:43:22;;;;;;;4.35;3.90;;;19.70;37.50;;;;;;5045697;28;43799;-62
2021/12/27 04:45:52;;;;;;;3.88;3.58;;;19.70;37.50;;;;;;5044519;28;43501;-61
2021/12/27 04:48:21;;;;;;;3.47;3.17;;;19.60;38.20;;;;;;5043632;28;43530;-61
2021/12/27 04:50:49;;;;;;;3.92;3.60;;;19.60;37.50;;;;;;5032937;28;43696;-61
2021/12/27 04:53:17;;;;;;;3.65;3.35;;;19.60;37.60;;;;;;5035479;28;43810;-61
2021/12/27 04:55:45;;;;;;;4.82;3.58;;;19.60;37.60;;;;;;5038579;28;43583;-61
2021/12/27 04:58:16;;;;;;;3.53;3.22;;;19.60;37.60;;;;;;5045675;28;43434;-61
2021/12/27 05:00:46;;;;;;;3.78;3.47;;;19.60;37.70;;;;;;5045119;28;43999;-61
2021/12/27 05:03:14;;;;;;;3.92;3.63;;;19.50;37.70;;;;;;5045393;28;45052;-61
2021/12/27 05:05:45;;;;;;;3.92;3.60;;;19.50;37.70;;;;;;5045303;28;43436;-61
2021/12/27 05:08:14;;;;;;;4.07;3.70;;;19.50;37.70;;;;;;5045601;28;43545;-61
2021/12/27 05:10:45;;;;;;;3.53;3.22;;;19.50;37.70;;;;;;5044780;28;43566;-61
2021/12/27 05:13:13;;;;;;;3.90;3.60;;;19.50;37.70;;;;;;5046498;28;44062;-61
2021/12/27 05:15:41;;;;;;;4.40;3.85;;;19.50;37.60;;;;;;5044929;28;43506;-61
2021/12/27 05:18:10;;;;;;;4.28;3.88;;;19.50;37.70;;;;;;5042900;28;43422;-61
2021/12/27 05:20:37;;;;;;;3.90;3.55;;;19.50;37.80;;;;;;5045097;28;43525;-61
2021/12/27 05:23:06;;;;;;;3.83;3.53;;;19.40;37.70;;;;;;5077202;27;44041;-61
2021/12/27 05:25:34;;;;;;;4.25;3.85;;;19.40;37.80;;;;;;5044691;28;43392;-61
2021/12/27 05:28:01;;;;;;;4.22;3.83;;;19.40;37.80;;;;;;5045076;28;43526;-62
2021/12/27 05:30:29;;;;;;;4.30;3.65;;;19.40;37.70;;;;;;5044713;28;43564;-61
2021/12/27 05:32:56;;;;;;;4.25;3.83;;;19.40;37.80;;;;;;5044430;28;43870;-61
2021/12/27 05:35:24;;;;;;;3.90;3.60;;;19.40;37.80;;;;;;5045226;28;43931;-61
2021/12/27 05:37:51;;;;;;;4.30;3.83;;;19.40;37.80;;;;;;5076760;28;43446;-61
2021/12/27 05:40:22;;;;;;;3.85;3.55;;;19.30;37.80;;;;;;5044552;28;43636;-62
2021/12/27 05:42:51;;;;;;;4.10;3.75;;;19.30;37.80;;;;;;5043334;28;44056;-61
2021/12/27 05:45:20;;;;;;;4.15;3.75;;;19.30;37.90;;;;;;5045168;28;43488;-61
2021/12/27 05:47:48;;;;;;;4.20;3.80;;;19.30;37.90;;;;;;5044455;28;43565;-62
2021/12/27 05:50:17;;;;;;;4.45;4.05;;;19.30;37.90;;;;;;5044941;28;43539;-61
2021/12/27 05:52:48;;;;;;;4.10;3.70;;;19.30;37.90;;;;;;5076979;28;43797;-61
2021/12/27 05:55:16;;;;;;;4.05;3.65;;;19.30;37.90;;;;;;5044959;28;43478;-61
2021/12/27 05:57:43;;;;;;;4.00;3.70;;;19.30;37.90;;;;;;5044889;28;43539;-61
2021/12/27 06:00:13;;;;;;;3.85;3.55;;;19.30;37.90;;;;;;5044147;28;43613;-61
2021/12/27 06:02:42;;;;;;;4.30;3.90;;;19.30;37.90;;;;;;5043847;28;44088;-61
2021/12/27 06:05:12;;;;;;;3.83;3.50;;;19.30;37.90;;;;;;5044644;28;44173;-61
2021/12/27 06:07:39;;;;;;;4.28;3.88;;;19.30;38.00;;;;;;5034120;28;43451;-62
2021/12/27 06:10:07;;;;;;;4.30;3.90;;;19.30;37.90;;;;;;5044529;28;43585;-61
2021/12/27 06:12:35;;;;;;;4.00;3.60;;;19.30;38.00;;;;;;5043822;28;43800;-61
2021/12/27 06:15:04;;;;;;;4.28;3.88;;;19.30;38.00;;;;;;5073547;27;43439;-61
2021/12/27 06:17:32;;;;;;;3.75;3.45;;;19.30;38.00;;;;;;5034455;28;43587;-61
2021/12/27 06:20:00;;;;;;;4.10;3.70;;;19.30;38.00;;;;;;5044550;28;43545;-61
2021/12/27 06:22:28;;;;;;;4.03;3.72;;;19.30;38.00;;;;;;5042760;28;43935;-61
2021/12/27 06:24:57;;;;;;;4.10;3.70;;;19.30;38.00;;;;;;5044213;28;43503;-61
2021/12/27 06:27:25;;;;;;;4.57;4.18;;;19.30;38.00;;;;;;5042613;28;43500;-61
2021/12/27 06:29:53;;;;;;;4.15;3.75;;;19.30;38.00;;;;;;5044067;28;43672;-61
2021/12/27 06:32:22;;;;;;;4.35;3.95;;;19.30;38.00;;;;;;5043620;28;44101;-61
2021/12/27 06:34:49;;;;;;;3.85;3.55;;;19.20;38.10;;;;;;5044121;28;43478;-61
2021/12/27 06:37:17;;;;;;;4.00;3.65;;;19.20;38.20;;;;;;5042528;28;43621;-61
2021/12/27 06:39:44;;;;;;;4.72;4.25;;;19.20;38.20;;;;;;5044350;28;43994;-62
2021/12/27 06:42:12;;;;;;;3.97;3.67;;;19.20;38.20;;;;;;5043352;28;44713;-61
2021/12/27 06:44:39;;;;;;;4.53;4.13;;;19.30;38.20;;;;;;5043007;28;43766;-61
2021/12/27 06:47:07;;;;;;;4.45;4.03;;;19.20;38.10;;;;;;5044096;28;43482;-62
2021/12/27 06:49:36;;;;;;;4.35;3.95;;;19.20;38.10;;;;;;5043650;28;43577;-61
2021/12/27 06:52:04;;;;;;;3.97;3.58;;;19.30;38.20;;;;;;5042108;28;43805;-61
2021/12/27 06:54:32;;;;;;;3.65;3.35;;;19.30;38.20;;;;;;5041616;28;43970;-61
2021/12/27 06:57:00;;;;;;;4.32;3.92;;;19.30;38.20;;;;;;5043601;28;43438;-61
2021/12/27 06:59:28;;;;;;;4.25;3.88;;;19.30;38.20;;;;;;5043892;28;43451;-61
2021/12/27 07:01:56;;;;;;;4.45;4.05;;;19.30;38.20;;;;;;5041675;28;43949;-61
2021/12/27 07:04:24;;;;;;;3.75;3.45;;;19.30;38.20;;;;;;5075412;27;43502;-62
2021/12/27 07:06:51;;;;;;;4.22;3.83;;;19.30;38.10;;;;;;5043442;28;43519;-61
2021/12/27 07:09:24;;;;;;;3.80;3.50;;;19.30;38.10;;;;;;5043031;28;43597;-61
2021/12/27 07:11:53;;;;;;;4.30;3.90;;;19.40;38.20;;;;;;5042797;28;44114;-61
2021/12/27 07:14:20;;;;;;;4.32;3.70;;;19.30;38.10;;;;;;5044805;28;43987;-61
2021/12/27 07:16:48;;;;;;;4.15;3.75;;;19.40;38.20;;;;;;5043191;28;43431;-61
2021/12/27 07:19:16;;;;;;;3.85;3.55;;;19.40;38.20;;;;;;5043633;28;43662;-61
2021/12/27 07:21:44;;;;;;;4.05;3.65;;;19.40;38.10;;;;;;5042758;28;43878;-61
2021/12/27 07:24:12;;;;;;;4.50;4.10;;;19.40;38.10;;;;;;5075895;28;43506;-61
2021/12/27 07:26:39;;;;;;;4.15;3.75;;;19.40;38.10;;;;;;5043186;28;43452;-61
2021/12/27 07:29:07;;;;;;;4.18;3.78;;;19.50;38.10;;;;;;5053637;28;43451;-61
2021/12/27 07:31:34;;;;;;;3.88;3.58;;;19.50;38.20;;;;;;5042547;28;43811;-61
2021/12/27 07:34:02;;;;;;;4.35;3.95;;;19.50;38.10;;;;;;5041929;28;43551;-61
2021/12/27 07:36:30;;;;;;;4.00;3.60;;;19.50;38.20;;;;;;5043199;28;43442;-61
2021/12/27 07:39:00;;;;;;;4.15;3.80;;;19.50;38.20;;;;;;5043195;28;43507;-61
2021/12/27 07:41:29;;;;;;;3.92;3.63;;;19.50;38.20;;;;;;5042279;28;43993;-61
2021/12/27 07:43:57;;;;;;;3.92;3.63;;;19.50;38.20;;;;;;5043230;28;43597;-61
2021/12/27 07:46:24;;;;;;;4.15;3.70;;;19.50;38.10;;;;;;5050461;28;43449;-61
2021/12/27 07:48:52;;;;;;;5.22;4.25;;;19.60;38.10;;;;;;5045766;28;43576;-61
2021/12/27 07:51:20;;;;;;;3.80;3.50;;;19.60;38.20;;;;;;5041401;28;43914;-61
2021/12/27 07:53:47;;;;;;;4.40;3.42;;;19.60;38.20;;;;;;5042987;28;43518;-61
2021/12/27 07:56:15;;;;;;;3.85;3.55;;;19.60;38.20;;;;;;5046555;28;43517;-62
2021/12/27 07:58:42;;;;;;;4.15;3.75;;;19.60;38.10;;;;;;5046833;28;43570;-62
2021/12/27 08:01:10;;;;;;;4.00;3.60;;;19.60;38.10;;;;;;5052695;28;44145;-61
2021/12/27 08:03:37;;;;;;;4.15;3.80;;;19.70;38.20;;;;;;5046708;28;43582;-62
2021/12/27 08:06:05;;;;;;;4.00;3.60;;;19.70;38.20;;;;;;5046198;28;43499;-62
2021/12/27 08:08:32;;;;;;;4.28;3.88;;;19.70;38.20;;;;;;5046260;28;43476;-62
2021/12/27 08:11:00;;;;;;;4.10;3.70;;;19.70;38.20;;;;;;5044360;28;44296;-62
2021/12/27 08:13:27;;;;;;;4.30;3.90;;;19.70;38.20;;;;;;5044561;28;43539;-61
2021/12/27 08:15:55;;;;;;;4.05;3.75;;;19.70;38.20;;;;;;5046119;28;43450;-61
2021/12/27 08:18:22;;;;;;;4.18;3.75;;;19.70;38.20;;;;;;5046630;28;43495;-60
2021/12/27 08:20:50;;;;;;;4.65;4.25;;;19.70;38.20;;;;;;5045709;28;45012;-61
2021/12/27 08:23:17;;;;;;;4.50;4.10;;;19.70;38.20;;;;;;5078671;27;43549;-61
2021/12/27 08:25:45;;;;;;;4.60;4.03;;;19.80;38.20;;;;;;5046157;28;43481;-61
2021/12/27 08:28:13;;;;;;;4.55;4.15;;;19.80;38.30;;;;;;5046356;28;43522;-62
2021/12/27 08:30:40;;;;;;;4.43;4.03;;;19.80;38.20;;;;;;5045800;28;44956;-62
2021/12/27 08:33:08;;;;;;;4.32;3.92;;;19.80;38.20;;;;;;5045519;28;43470;-62
2021/12/27 08:35:36;;;;;;;4.22;3.83;;;19.80;38.10;;;;;;5045888;28;43549;-61
2021/12/27 08:38:04;;;;;;;4.22;3.83;;;19.80;38.20;;;;;;5045739;28;43485;-60
2021/12/27 08:40:32;;;;;;;4.43;4.03;;;19.80;38.10;;;;;;5045680;28;44642;-61
2021/12/27 08:43:00;;;;;;;4.25;3.78;;;19.90;38.20;;;;;;5045367;28;43440;-62
2021/12/27 08:45:28;;;;;;;4.45;3.90;;;19.80;38.10;;;;;;5045679;28;43427;-62
2021/12/27 08:47:57;;;;;;;4.40;4.00;;;19.80;38.10;;;;;;5045417;28;43561;-61
2021/12/27 08:50:24;;;;;;;5.78;4.78;;;19.80;38.20;;;;;;5045676;28;44975;-60
2021/12/27 08:52:52;;;;;;;4.13;3.63;;;19.90;38.30;;;;;;5045206;28;44107;-60
2021/12/27 08:55:20;;;;;;;3.83;3.45;;;19.80;38.20;;;;;;5045696;28;43502;-61
2021/12/27 08:57:47;;;;;;;4.32;3.92;;;19.80;38.20;;;;;;5035323;28;43525;-61
2021/12/27 09:00:16;;;;;;;5.13;4.25;;;19.90;38.30;;;;;;5035726;28;43790;-61
2021/12/27 09:02:45;;;;;;;4.80;4.05;;;19.90;38.30;;;;;;5052489;28;43947;-61
2021/12/27 09:05:13;;;;;;;4.75;4.15;;;19.90;38.30;;;;;;5068842;28;43498;-63
2021/12/27 09:07:41;;;;;;;5.22;3.90;;;19.90;38.30;;;;;;5041387;28;43554;-62
2021/12/27 09:10:10;;;;;;;4.85;4.25;;;19.80;38.50;;;;;;5041482;28;44026;-62
2021/12/27 09:12:39;;;;;;;4.85;4.07;;;19.80;38.50;;;;;;5040185;28;43882;-61
2021/12/27 09:15:10;;;;;;;5.53;4.53;;;19.80;38.50;;;;;;5033650;28;43563;-61
2021/12/27 09:17:38;;;;;;;4.55;3.75;;;19.90;38.60;;;;;;5074584;27;43584;-62
2021/12/27 09:20:07;;;;;;;4.95;4.25;;;19.90;38.60;;;;;;5041556;28;43851;-61
2021/12/27 09:22:36;;;;;;;5.53;4.57;;;19.90;38.50;;;;;;5042896;28;43705;-62
2021/12/27 09:25:07;;;;;;;4.75;4.22;;;19.90;38.60;;;;;;5042563;28;43507;-62
2021/12/27 09:27:34;;;;;;;5.22;4.43;;;19.90;38.50;;;;;;5042657;28;43581;-61
2021/12/27 09:30:03;;;;;;;4.93;4.13;;;19.90;38.50;;;;;;5042579;28;43920;-62
2021/12/27 09:32:30;;;;;;;4.82;3.85;;;19.90;38.50;;;;;;5042099;28;43629;-61
2021/12/27 09:34:58;;;;;;;4.68;4.18;;;19.90;38.50;;;;;;5075122;27;43492;-63
2021/12/27 09:37:26;;;;;;;4.72;4.07;;;19.90;38.40;;;;;;5043092;28;43499;-61
2021/12/27 09:39:53;;;;;;;5.55;4.45;;;20.00;38.40;;;;;;5043266;28;43807;-61
2021/12/27 09:42:25;;;;;;;5.05;4.40;;;20.00;38.40;;;;;;5041041;28;45082;-62
2021/12/27 09:44:56;;;;;;;4.32;3.92;;;20.00;38.50;;;;;;5043138;28;43597;-62
2021/12/27 09:47:24;;;;;;;;;;;20.00;38.50;;;;;;5041837;28;43527;-61
2021/12/27 09:50:13;;;;;;;4.93;4.30;;;20.00;38.40;;;;;;5041163;28;43815;-63
2021/12/27 09:52:40;;;;;;;4.93;4.18;;;20.00;38.50;;;;;;5042476;28;43534;-61
2021/12/27 09:55:09;;;;;;;4.35;3.95;;;20.10;38.40;;;;;;5042183;28;43485;-62
2021/12/27 09:57:37;;;;;;;4.65;3.88;;;20.10;38.40;;;;;;5042399;28;43435;-62
2021/12/27 10:00:08;;;;;;;4.40;4.00;;;20.10;38.40;;;;;;5042557;28;44166;-62
2021/12/27 10:02:38;;;;;;;5.20;4.47;;;20.10;38.40;;;;;;5073496;27;43454;-62
2021/12/27 10:05:07;;;;;;;5.30;4.57;;;20.10;38.40;;;;;;5042620;28;43479;-62
2021/12/27 10:07:41;;;;;;;5.70;4.18;;;20.10;38.40;;;;;;5039770;28;43641;-62
2021/12/27 10:10:17;;;;;;;5.55;4.50;;;20.10;38.40;;;;;;5040255;28;43905;-62
2021/12/27 10:12:46;;;;;;;5.65;4.13;;;20.10;38.50;;;;;;5041965;28;44090;-63
2021/12/27 10:15:22;;;;;;;4.93;3.83;;;20.10;38.40;;;;;;5039170;28;43567;-63
2021/12/27 10:17:50;;;;;;;5.25;4.50;;;20.10;38.40;;;;;;5036949;28;43815;-62
2021/12/27 10:20:21;;;;;;;4.95;4.40;;;20.10;38.50;;;;;;5074139;27;44924;-62
2021/12/27 10:22:52;;;;;;;4.85;4.35;;;20.10;38.50;;;;;;5043795;28;43506;-61
2021/12/27 10:25:22;;;;;;;6.60;4.60;;;20.10;38.50;;;;;;5041607;28;43459;-62
2021/12/27 10:27:53;;;;;;;6.68;4.55;;;20.20;38.60;;;;;;5042372;28;43547;-63
2021/12/27 10:30:23;;;;;;;5.47;4.45;;;20.20;38.50;;;;;;5042145;28;43786;-62
2021/12/27 10:33:19;;;;;;;6.63;4.45;;;20.20;38.40;;;;;;5041752;28;43720;-62
2021/12/27 10:35:50;;;;;;;5.35;4.63;;;20.20;38.40;;;;;;5042522;28;44156;-62
2021/12/27 10:38:31;;;;;;;5.05;4.55;;;20.30;38.40;;;;;;5042500;28;43558;-62
2021/12/27 10:41:09;;;;;;;8.82;4.75;;;20.30;38.50;;;;;;5037006;28;44086;-62
2021/12/27 10:43:46;;;;;;;6.55;5.20;;;20.30;38.40;;;;;;5039457;28;43507;-61
2021/12/27 10:46:33;;;;;;;7.57;5.05;;;20.30;38.40;;;;;;5038779;28;43591;-62
2021/12/27 10:49:01;;;;;;;6.78;5.03;;;20.40;38.50;;;;;;5074841;27;43609;-62
2021/12/27 10:51:30;;;;;;;9.13;5.57;;;20.50;38.50;;;;;;5039088;28;44709;-62
2021/12/27 10:54:00;;;;;;;8.25;5.47;;;20.50;38.40;;;;;;5041635;28;43442;-62
2021/12/27 10:56:49;;;;;;;6.53;5.07;;;20.50;38.50;;;;;;5042084;28;43447;-63
2021/12/27 10:59:20;;;;;;;7.57;5.50;;;20.50;38.50;;;;;;5041656;28;43538;-63
2021/12/27 11:01:49;;;;;;;9.65;5.93;;;20.50;38.40;;;;;;5040552;28;45073;-62
2021/12/27 11:04:19;;;;;;;8.15;5.47;;;20.50;38.50;;;;;;5040452;28;43496;-63
2021/12/27 11:06:49;;;;;;;8.32;5.70;;;20.60;38.60;;;;;;5041707;28;43436;-63
2021/12/27 11:09:17;;;;;;;7.85;5.25;;;20.60;38.60;;;;;;5025752;28;43553;-63
2021/12/27 11:11:46;;;;;;;9.65;5.65;;;20.70;38.70;;;;;;5040511;28;44212;-63
2021/12/27 11:14:14;;;;;;;7.90;5.47;;;20.70;38.70;;;;;;5038870;28;43608;-64
2021/12/27 11:16:43;;;;;;;8.82;5.68;;;20.70;38.70;;;;;;5033523;28;43472;-63
2021/12/27 11:19:11;;;;;;;7.78;5.35;;;20.70;38.60;;;;;;5040632;28;43636;-63
2021/12/27 11:21:44;;;;;;;7.82;5.28;;;20.80;38.60;;;;;;5038290;28;44026;-63
2021/12/27 11:24:12;;;;;;;7.20;5.40;;;20.80;38.60;;;;;;5040373;28;43477;-61
2021/12/27 11:26:43;;;;;;;7.00;5.43;;;20.80;38.60;;;;;;5040968;28;43492;-61
2021/12/27 11:29:22;;;;;;;9.13;5.80;;;20.90;38.60;;;;;;5039712;28;43646;-61
2021/12/27 11:31:53;;;;;;;8.23;5.30;;;20.90;38.50;;;;;;5039332;28;44076;-61
2021/12/27 11:34:57;;;;;;;7.13;5.45;;;20.90;38.50;;;;;;5039771;28;43459;-61
2021/12/27 11:37:43;;;;;;;6.78;5.20;;;21.00;38.60;;;;;;5073375;28;43538;-61
2021/12/27 11:40:16;;;;;;;7.65;5.15;;;21.00;38.60;;;;;;5040354;28;43481;-61
2021/12/27 11:42:55;;;;;;;6.53;4.85;;;21.00;38.60;;;;;;5040533;28;43997;-61
2021/12/27 11:45:54;;;;;;;7.97;5.25;;;21.00;38.60;;;;;;5036973;28;43476;-61
2021/12/27 11:48:28;;;;;;;6.90;5.22;;;21.00;38.50;;;;;;5040685;28;43567;-60
2021/12/27 11:50:59;;;;;;;8.65;6.15;;;21.00;38.50;;;;;;5040098;28;43622;-61
2021/12/27 11:53:35;;;;;;;6.72;5.30;;;21.10;38.60;;;;;;5039848;28;43749;-61
2021/12/27 11:56:09;;;;;;;9.40;6.05;;;21.10;38.50;;;;;;5040017;28;43418;-61
2021/12/27 11:58:41;;;;;;;7.97;5.38;;;21.10;38.50;;;;;;5040129;28;44411;-61
2021/12/27 12:01:21;;;;;;;8.52;6.13;;;21.10;38.50;;;;;;5040007;28;43514;-62
2021/12/27 12:03:50;;;;;;;9.30;6.13;;;21.10;38.50;;;;;;5038925;28;43741;-61
2021/12/27 12:06:43;;;;;;;10.63;6.30;;;21.10;38.50;;;;;;5040615;28;44080;-61
2021/12/27 12:09:13;;;;;;;7.90;5.53;;;21.20;38.50;;;;;;5039025;28;43572;-61
2021/12/27 12:11:41;;;;;;;7.93;5.20;;;21.20;39.20;;;;;;5039502;28;44148;-61
2021/12/27 12:14:36;;;;;;;7.15;5.32;;;21.20;38.50;;;;;;5040300;28;44026;-62
2021/12/27 12:17:07;;;;;;;7.20;5.50;;;21.20;38.60;;;;;;5066388;27;43508;-61
2021/12/27 12:19:35;;;;;;;;;;;21.20;38.50;;;;;;5044664;28;43515;-61
2021/12/27 12:22:03;;;;;;;7.32;5.30;;;21.20;38.50;;;;;;5040014;28;43545;-61
2021/12/27 12:24:30;;;;;;;7.78;5.68;;;21.20;38.50;;;;;;5039845;28;44078;-61
2021/12/27 12:27:01;;;;;;;6.65;5.35;;;21.20;38.50;;;;;;5040141;28;43522;-61
2021/12/27 12:29:44;;;;;;;7.00;5.07;;;21.20;38.50;;;;;;5040240;28;43496;-61
2021/12/27 12:32:15;;;;;;;6.47;5.00;;;21.30;38.60;;;;;;5038967;28;43606;-61
2021/12/27 12:34:43;;;;;;;8.23;5.85;;;21.20;38.50;;;;;;5041611;28;43592;-62
2021/12/27 12:37:13;;;;;;;9.52;6.25;;;21.20;38.60;;;;;;5040641;28;43519;-62
2021/12/27 12:39:48;;;;;;;8.75;6.20;;;21.20;38.50;;;;;;5034847;28;43555;-61
2021/12/27 12:42:24;;;;;;;8.65;5.70;;;21.20;38.50;;;;;;5042064;28;43530;-61
2021/12/27 12:45:05;;;;;;;7.60;6.30;;;21.20;38.50;;;;;;5041168;28;43728;-62
2021/12/27 12:47:40;;;;;;;;;;;21.20;38.50;;;;;;5043611;28;43498;-61
2021/12/27 12:50:19;;;;;;;7.70;5.82;;;21.20;38.50;;;;;;5041953;28;43550;-61
2021/12/27 12:53:02;;;;;;;9.95;6.97;;;21.20;38.60;;;;;;5043200;28;43566;-62
2021/12/27 12:55:34;;;;;;;9.10;7.18;;;21.20;38.60;;;;;;5042652;28;44049;-62
2021/12/27 12:58:03;;;;;;;10.02;7.00;;;21.20;38.60;;;;;;5044031;28;43615;-61
2021/12/27 13:00:34;;;;;;;10.70;7.75;;;21.20;38.70;;;;;;5043064;28;43522;-61
2021/12/27 13:03:10;;;;;;;13.25;8.85;;;21.20;38.70;;;;;;5041226;28;43562;-61
2021/12/27 13:05:38;;;;;;;11.73;8.88;;;21.20;38.60;;;;;;5041273;28;44170;-62